Time;durP1;ratioP1;P1;durP2;ratioP2;P2;SDS_P1;SDS_P2;PMS_P1;PMS_P2;Temp;Humidity;BMP_temperature;BMP_pressure;BME280_temperature;BME280_humidity;BME280_pressure;Samples;Min_cycle;Max_cycle;Signal;HPM_P1;HPM_P2
2022/05/12 00:00:30;;;;;;;37.92;33.85;;;;;;;10.97;100.00;101428.34;5003872;28;20069;-85
2022/05/12 00:02:58;;;;;;;36.17;33.38;;;;;;;10.86;100.00;101428.88;5006306;28;20141;-83
2022/05/12 00:05:26;;;;;;;34.42;31.83;;;;;;;10.81;100.00;101430.44;5005171;28;20054;-85
2022/05/12 00:07:53;;;;;;;35.30;32.45;;;;;;;10.81;100.00;101427.78;5005646;28;20459;-83
2022/05/12 00:10:25;;;;;;;34.70;32.13;;;;;;;10.55;100.00;101429.97;5003295;28;20042;-85
2022/05/12 00:12:53;;;;;;;33.22;30.90;;;;;;;10.63;100.00;101429.03;5003767;28;20133;-85
2022/05/12 00:15:23;;;;;;;35.90;32.95;;;;;;;10.74;100.00;101425.91;5007678;28;20062;-84
2022/05/12 00:17:50;;;;;;;33.90;31.40;;;;;;;10.71;100.00;101423.63;4997992;28;20062;-82
2022/05/12 00:20:21;;;;;;;34.13;31.52;;;;;;;10.68;100.00;101418.69;5003326;28;20054;-83
2022/05/12 00:22:52;;;;;;;34.15;31.50;;;;;;;10.85;100.00;101434.38;5005916;28;20054;-85
2022/05/12 00:25:23;;;;;;;35.70;32.95;;;;;;;10.97;100.00;101427.53;5005950;28;20051;-82
2022/05/12 00:27:55;;;;;;;32.55;30.00;;;;;;;10.76;100.00;101426.50;5005669;28;20057;-85
2022/05/12 00:30:22;;;;;;;;;;;;;;;11.02;100.00;101432.28;5001706;28;20475;-83
2022/05/12 00:32:49;;;;;;;33.08;30.58;;;;;;;10.93;100.00;101436.91;5001587;28;19922;-84
2022/05/12 00:35:17;;;;;;;31.88;29.50;;;;;;;10.85;100.00;101432.53;5000652;28;20084;-84
2022/05/12 00:37:44;;;;;;;34.08;31.48;;;;;;;10.93;100.00;101431.59;5004288;28;20108;-86
2022/05/12 00:40:16;;;;;;;32.95;30.45;;;;;;;10.76;100.00;101434.47;5001391;28;20053;-85
2022/05/12 00:42:58;;;;;;;33.00;30.48;;;;;;;10.62;100.00;101423.91;5004298;28;20062;-84
2022/05/12 00:45:32;;;;;;;34.08;31.48;;;;;;;10.49;100.00;101438.69;5000465;28;20050;-83
2022/05/12 00:48:00;;;;;;;34.00;31.40;;;;;;;10.40;100.00;101437.16;5004131;28;20057;-84
2022/05/12 00:50:31;;;;;;;34.55;31.63;;;;;;;10.51;100.00;101443.84;5004980;28;20124;-82
2022/05/12 00:53:01;;;;;;;32.90;30.40;;;;;;;10.60;100.00;101436.56;5004473;28;20046;-83
2022/05/12 00:55:33;;;;;;;33.75;31.25;;;;;;;10.55;100.00;101432.63;5001281;28;20057;-85
2022/05/12 00:58:06;;;;;;;33.10;30.60;;;;;;;10.54;100.00;101438.97;5001880;28;20047;-83
2022/05/12 01:00:33;;;;;;;33.45;30.83;;;;;;;10.51;100.00;101443.84;5003128;28;20116;-84
2022/05/12 01:03:08;;;;;;;34.38;31.70;;;;;;;10.35;100.00;101444.03;5002873;28;20050;-84
2022/05/12 01:05:36;;;;;;;35.80;32.97;;;;;;;10.40;100.00;101441.66;5000278;28;20058;-85
2022/05/12 01:08:04;;;;;;;34.90;31.67;;;;;;;10.34;100.00;101447.72;5004512;28;20046;-84
2022/05/12 01:10:31;;;;;;;34.85;32.17;;;;;;;10.34;100.00;101445.88;4998169;28;20051;-84
2022/05/12 01:13:03;;;;;;;32.83;29.98;;;;;;;10.12;100.00;101444.97;5003898;28;20050;-85
2022/05/12 01:15:30;;;;;;;32.90;30.60;;;;;;;10.22;100.00;101442.84;5001679;28;20054;-84
2022/05/12 01:18:05;;;;;;;31.38;29.00;;;;;;;10.22;100.00;101448.16;5001574;28;20046;-85
2022/05/12 01:20:33;;;;;;;30.98;28.45;;;;;;;10.14;100.00;101450.13;5003217;28;20042;-83
2022/05/12 01:23:05;;;;;;;32.00;29.85;;;;;;;10.18;100.00;101448.72;5003629;28;20053;-84
2022/05/12 01:25:33;;;;;;;32.20;29.63;;;;;;;10.18;100.00;101444.22;5000689;28;20046;-83
2022/05/12 01:28:00;;;;;;;32.35;29.85;;;;;;;9.86;100.00;101448.94;5002463;28;20050;-85
2022/05/12 01:30:27;;;;;;;33.80;31.15;;;;;;;9.91;100.00;101448.38;5003126;28;20050;-83
2022/05/12 01:33:00;;;;;;;32.22;29.58;;;;;;;9.87;100.00;101447.09;4999705;28;20046;-84
2022/05/12 01:35:26;;;;;;;;;;;;;;;9.89;100.00;101460.19;4999184;28;20046;-83
2022/05/12 01:37:53;;;;;;;31.17;28.98;;;;;;;9.76;100.00;101452.88;5001556;28;19933;-84
2022/05/12 01:40:22;;;;;;;32.63;30.23;;;;;;;9.44;100.00;101446.06;4997809;28;20112;-85
2022/05/12 01:42:52;;;;;;;45.83;40.55;;;;;;;9.86;100.00;101454.25;4997957;28;20129;-86
2022/05/12 01:45:19;;;;;;;52.55;47.05;;;;;;;9.76;100.00;101451.03;4998528;28;20053;-84
2022/05/12 01:47:50;;;;;;;51.88;41.53;;;;;;;9.62;100.00;101449.19;5002213;28;20042;-83
2022/05/12 01:50:20;;;;;;;54.25;43.33;;;;;;;9.95;100.00;101449.66;5001805;28;20070;-83
2022/05/12 01:52:47;;;;;;;52.33;45.88;;;;;;;9.52;100.00;101453.94;4997791;28;20108;-86
2022/05/12 01:55:16;;;;;;;48.05;39.70;;;;;;;9.80;100.00;101441.72;5000886;28;20046;-84
2022/05/12 01:57:43;;;;;;;52.40;43.03;;;;;;;9.97;100.00;101460.91;5000658;28;20058;-85
2022/05/12 02:02:54;;;;;;;52.97;47.20;;;;;;;9.95;100.00;101459.44;4985689;23;20071;-83
2022/05/12 02:05:22;;;;;;;55.50;49.50;;;;;;;9.71;100.00;101457.88;4953462;29;20044;-83
2022/05/12 02:07:50;;;;;;;55.88;50.47;;;;;;;9.71;100.00;101464.00;4957698;28;20407;-84
2022/05/12 02:10:19;;;;;;;55.95;49.95;;;;;;;9.66;100.00;101465.59;4959694;28;20050;-82
2022/05/12 02:12:46;;;;;;;54.85;49.00;;;;;;;9.64;100.00;101463.09;4953533;29;20558;-82
2022/05/12 02:15:13;;;;;;;55.60;50.10;;;;;;;9.80;100.00;101476.22;4960071;29;20078;-83
2022/05/12 02:17:40;;;;;;;56.00;48.47;;;;;;;9.90;100.00;101473.28;4949554;29;20051;-83
2022/05/12 02:20:11;;;;;;;55.63;49.03;;;;;;;9.88;100.00;101485.06;4946878;29;20060;-84
2022/05/12 02:22:39;;;;;;;55.55;49.53;;;;;;;9.82;100.00;101473.34;4952989;29;20079;-82
2022/05/12 02:25:18;;;;;;;52.67;46.60;;;;;;;9.90;100.00;101470.63;4947973;29;20055;-85
2022/05/12 02:27:46;;;;;;;51.45;44.97;;;;;;;9.33;100.00;101471.19;4952895;29;20078;-84
2022/05/12 02:30:16;;;;;;;57.42;45.28;;;;;;;9.60;100.00;101475.91;4959473;29;20122;-85
2022/05/12 02:32:44;;;;;;;55.03;46.22;;;;;;;9.58;100.00;101480.56;4959530;28;20103;-84
2022/05/12 02:35:13;;;;;;;54.58;48.35;;;;;;;9.55;100.00;101480.91;4960343;28;20059;-86
2022/05/12 02:37:41;;;;;;;53.25;47.47;;;;;;;9.74;100.00;101486.69;4957250;28;20076;-83
2022/05/12 02:40:20;;;;;;;55.70;47.67;;;;;;;9.35;100.00;101485.91;4961470;28;20102;-83
2022/05/12 02:42:49;;;;;;;54.95;49.05;;;;;;;9.49;100.00;101481.63;4953036;28;20044;-84
2022/05/12 02:45:37;;;;;;;59.97;53.92;;;;;;;9.45;100.00;101490.16;4956088;29;20199;-84
2022/05/12 02:48:14;;;;;;;57.60;47.47;;;;;;;9.36;100.00;101489.38;4963001;29;20062;-85
2022/05/12 02:50:43;;;;;;;54.90;45.92;;;;;;;9.13;100.00;101490.22;4959793;28;20047;-86
2022/05/12 02:53:11;;;;;;;55.13;48.97;;;;;;;9.08;100.00;101486.47;4964892;28;20047;-84
2022/05/12 02:55:37;;;;;;;54.08;46.20;;;;;;;9.34;100.00;101500.16;4957562;28;20057;-86
2022/05/12 02:58:06;;;;;;;51.63;46.05;;;;;;;8.67;100.00;101502.63;4960323;28;20078;-85
2022/05/12 03:00:34;;;;;;;59.17;48.25;;;;;;;9.25;100.00;101493.28;4951699;29;20130;-84
2022/05/12 03:03:11;;;;;;;55.90;48.00;;;;;;;9.38;100.00;101500.66;4959864;29;20071;-86
2022/05/12 03:05:43;;;;;;;57.08;51.28;;;;;;;9.18;100.00;101495.00;4960753;29;20079;-83
2022/05/12 03:08:14;;;;;;;55.30;49.40;;;;;;;9.09;100.00;101498.72;4953691;28;20114;-85
2022/05/12 03:10:49;;;;;;;54.47;46.58;;;;;;;9.28;100.00;101498.22;4958814;29;20043;-82
2022/05/12 03:13:16;;;;;;;51.45;44.13;;;;;;;9.11;100.00;101492.25;4959352;28;20071;-84
2022/05/12 03:15:45;;;;;;;53.78;47.95;;;;;;;9.16;100.00;101505.75;4954832;28;20043;-85
2022/05/12 03:18:20;;;;;;;53.35;47.75;;;;;;;9.26;100.00;101504.69;4955869;29;20054;-85
2022/05/12 03:20:49;;;;;;;56.55;50.88;;;;;;;9.18;100.00;101505.59;4954018;29;20089;-84
2022/05/12 03:23:22;;;;;;;54.50;49.45;;;;;;;9.40;100.00;101515.34;4955577;29;20062;-83
2022/05/12 03:26:01;;;;;;;30.70;28.15;;;;;;;9.24;100.00;101514.66;4958680;28;20063;-85
2022/05/12 03:28:33;;;;;;;31.15;28.90;;;;;;;8.89;100.00;101507.09;4955698;29;20039;-88
2022/05/12 03:31:28;;;;;;;32.55;29.83;;;;;;;9.04;100.00;101516.97;4962337;28;20058;-86
2022/05/12 03:34:00;;;;;;;30.67;28.48;;;;;;;9.28;100.00;101510.66;4953076;29;20066;-85
2022/05/12 03:36:31;;;;;;;31.52;29.30;;;;;;;9.41;100.00;101516.19;4957041;28;20051;-84
2022/05/12 03:39:08;;;;;;;32.20;29.63;;;;;;;9.61;100.00;101519.97;4958661;28;20058;-84
2022/05/12 03:41:41;;;;;;;31.38;29.08;;;;;;;9.62;100.00;101521.66;4962852;29;20085;-84
2022/05/12 03:46:54;;;;;;;32.15;29.45;;;;;;;10.01;100.00;101519.75;4957266;29;20055;-87
2022/05/12 03:49:22;;;;;;;32.63;30.30;;;;;;;9.98;100.00;101514.81;4957820;29;20066;-88
2022/05/12 03:52:01;;;;;;;34.97;31.75;;;;;;;9.95;100.00;101517.81;4964444;29;20057;-87
2022/05/12 03:54:28;;;;;;;34.85;31.60;;;;;;;10.36;100.00;101520.06;4951291;28;20069;-86
2022/05/12 03:57:00;;;;;;;33.47;30.48;;;;;;;10.34;100.00;101522.88;4947440;29;20398;-86
2022/05/12 03:59:38;;;;;;;35.28;31.90;;;;;;;10.62;100.00;101522.19;4952657;28;20051;-88
2022/05/12 04:02:05;;;;;;;33.95;31.10;;;;;;;10.86;100.00;101521.91;4953544;28;20062;-88
2022/05/12 04:04:33;;;;;;;34.22;31.17;;;;;;;10.83;100.00;101522.22;4964218;28;20047;-86
2022/05/12 04:07:01;;;;;;;36.25;33.75;;;;;;;11.09;100.00;101534.19;4946094;29;20063;-86
2022/05/12 04:09:32;;;;;;;32.55;30.48;;;;;;;11.17;100.00;101529.56;4953876;29;20059;-87
2022/05/12 04:12:02;;;;;;;48.22;44.40;;;;;;;11.26;100.00;101518.81;4954717;29;20051;-85
2022/05/12 04:14:41;;;;;;;33.08;30.73;;;;;;;11.45;100.00;101523.47;4951840;29;20139;-87
2022/05/12 04:17:20;;;;;;;32.90;30.60;;;;;;;11.70;100.00;101537.16;4950450;29;20055;-86
2022/05/12 04:19:57;;;;;;;35.10;32.60;;;;;;;11.91;100.00;101534.47;4946937;28;20126;-85
2022/05/12 04:22:33;;;;;;;34.20;31.58;;;;;;;12.03;100.00;101542.75;4948797;29;20048;-86
2022/05/12 04:25:02;;;;;;;34.70;31.80;;;;;;;12.20;100.00;101534.47;4959458;29;20052;-86
2022/05/12 04:27:35;;;;;;;34.45;31.90;;;;;;;12.29;100.00;101539.44;4954234;29;20054;-87
2022/05/12 04:30:11;;;;;;;34.40;32.10;;;;;;;12.73;100.00;101534.69;4952444;29;20058;-87
2022/05/12 04:32:44;;;;;;;34.72;32.22;;;;;;;12.92;100.00;101543.75;4962257;29;20160;-86
2022/05/12 04:35:14;;;;;;;33.35;31.05;;;;;;;12.91;100.00;101542.94;4944198;29;20066;-85
2022/05/12 04:37:45;;;;;;;34.13;31.65;;;;;;;13.18;100.00;101535.81;4945903;29;20051;-88
2022/05/12 04:40:15;;;;;;;31.75;29.80;;;;;;;13.23;100.00;101532.53;4960368;29;20086;-86
2022/05/12 04:42:43;;;;;;;34.00;31.50;;;;;;;13.45;100.00;101546.53;4957183;28;20051;-84
2022/05/12 04:45:12;;;;;;;35.40;32.53;;;;;;;13.56;100.00;101550.47;4954922;29;20051;-87
2022/05/12 04:48:03;;;;;;;35.67;33.20;;;;;;;13.79;100.00;101547.34;4954431;29;20055;-85
2022/05/12 04:50:41;;;;;;;35.20;32.80;;;;;;;14.02;100.00;101545.06;4962387;29;20051;-87
2022/05/12 04:53:12;;;;;;;35.38;32.88;;;;;;;13.99;100.00;101540.16;4960593;28;20083;-85
2022/05/12 04:55:45;;;;;;;35.75;33.15;;;;;;;14.16;100.00;101546.69;4957866;28;20074;-87
2022/05/12 04:58:31;;;;;;;34.00;31.60;;;;;;;14.38;100.00;101546.41;4957462;28;20457;-86
2022/05/12 05:00:58;;;;;;;35.22;32.55;;;;;;;14.70;100.00;101550.00;4953819;29;20052;-88
2022/05/12 05:03:30;;;;;;;34.13;31.83;;;;;;;14.80;100.00;101552.25;4953796;29;20047;-88
2022/05/12 05:06:38;;;;;;;34.20;31.90;;;;;;;15.03;100.00;101554.38;4963764;29;20507;-88
2022/05/12 05:09:35;;;;;;;36.40;34.10;;;;;;;15.00;100.00;101560.97;4946221;29;20044;-88
2022/05/12 05:12:11;;;;;;;34.35;32.25;;;;;;;15.08;100.00;101549.19;4949416;29;20050;-86
2022/05/12 05:14:57;;;;;;;34.40;32.25;;;;;;;15.08;100.00;101551.88;4962116;29;20122;-87
2022/05/12 05:17:44;;;;;;;36.53;34.20;;;;;;;15.43;100.00;101554.09;4962581;29;20060;-86
2022/05/12 05:20:21;;;;;;;33.17;31.10;;;;;;;15.65;100.00;101555.38;4953240;29;20456;-87
2022/05/12 05:23:24;;;;;;;34.95;32.67;;;;;;;15.68;100.00;101560.31;4947545;29;20160;-86
2022/05/12 05:26:28;;;;;;;34.50;32.40;;;;;;;16.03;100.00;101555.22;4961331;29;20051;-86
2022/05/12 05:28:58;;;;;;;33.58;31.15;;;;;;;16.16;100.00;101559.66;4965740;28;20047;-89
2022/05/12 05:31:33;;;;;;;34.75;32.47;;;;;;;16.30;100.00;101563.00;4960166;29;20043;-87
2022/05/12 05:34:01;;;;;;;33.70;31.55;;;;;;;16.44;100.00;101567.16;4954811;29;20067;-86
2022/05/12 05:36:35;;;;;;;35.72;33.42;;;;;;;16.59;100.00;101561.44;4952284;29;20051;-86
2022/05/12 05:39:04;;;;;;;33.42;31.25;;;;;;;16.63;100.00;101562.59;4956941;28;20054;-86
2022/05/12 05:42:04;;;;;;;35.22;33.08;;;;;;;16.74;100.00;101558.34;4955206;29;20040;-88
2022/05/12 05:44:47;;;;;;;36.10;33.63;;;;;;;17.14;100.00;101563.19;4960106;29;20711;-86
2022/05/12 05:47:23;;;;;;;;;;;;;;;17.39;100.00;101568.38;4961131;28;20376;-86
2022/05/12 05:49:58;;;;;;;36.28;33.92;;;;;;;17.55;100.00;101565.06;4959522;29;19922;-85
2022/05/12 05:55:14;;;;;;;34.13;32.08;;;;;;;17.72;100.00;101567.03;4904718;29;20077;-85
2022/05/12 05:57:59;;;;;;;34.83;32.45;;;;;;;18.22;100.00;101563.91;4949084;29;20070;-87
2022/05/12 06:00:32;;;;;;;32.45;30.25;;;;;;;18.62;100.00;101555.84;4965709;29;20079;-87
2022/05/12 06:02:59;;;;;;;33.08;31.20;;;;;;;18.77;100.00;101563.44;4950959;29;20062;-86
2022/05/12 06:05:28;;;;;;;34.40;32.58;;;;;;;18.47;100.00;101566.31;4960966;29;20051;-88
2022/05/12 06:07:55;;;;;;;31.23;29.63;;;;;;;18.31;100.00;101554.41;4956235;28;20075;-87
2022/05/12 06:10:22;;;;;;;31.98;29.83;;;;;;;18.70;100.00;101554.66;4956841;29;20110;-87
2022/05/12 06:12:49;;;;;;;33.35;31.17;;;;;;;18.90;100.00;101554.25;4952974;29;20043;-86
2022/05/12 06:15:17;;;;;;;31.33;29.33;;;;;;;19.40;100.00;101556.22;4954840;29;20089;-87
2022/05/12 06:17:45;;;;;;;33.42;31.60;;;;;;;18.92;100.00;101550.25;4954075;28;20059;-85
2022/05/12 06:20:13;;;;;;;34.03;32.03;;;;;;;19.59;100.00;101554.88;4964281;29;20051;-87
2022/05/12 06:22:43;;;;;;;33.42;31.13;;;;;;;19.93;100.00;101554.88;4964750;28;20047;-85
2022/05/12 06:25:12;;;;;;;33.45;31.48;;;;;;;19.83;100.00;101555.56;4957931;29;20146;-83
2022/05/12 06:27:47;;;;;;;33.00;31.10;;;;;;;19.93;100.00;101559.47;4953644;29;20066;-85
2022/05/12 06:30:20;;;;;;;34.63;32.15;;;;;;;20.29;100.00;101549.97;4951112;29;20055;-85
2022/05/12 06:32:56;;;;;;;34.00;31.95;;;;;;;19.24;100.00;101557.81;4954237;29;20065;-85
2022/05/12 06:35:25;;;;;;;32.67;30.67;;;;;;;19.53;100.00;101563.16;4957491;29;20055;-84
2022/05/12 06:38:01;;;;;;;31.20;29.40;;;;;;;19.57;100.00;101562.41;4948558;29;20134;-84
2022/05/12 06:40:31;;;;;;;31.20;29.40;;;;;;;19.25;100.00;101558.66;4949812;29;20051;-82
2022/05/12 06:43:09;;;;;;;33.97;31.45;;;;;;;19.52;100.00;101564.22;4952762;29;20052;-85
2022/05/12 06:45:36;;;;;;;33.00;30.90;;;;;;;19.55;100.00;101566.41;4944710;29;20051;-83
2022/05/12 06:48:11;;;;;;;36.42;33.60;;;;;;;19.44;100.00;101560.03;4951484;29;20098;-83
2022/05/12 06:50:38;;;;;;;32.90;31.02;;;;;;;19.99;100.00;101561.16;4956196;29;20114;-85
2022/05/12 06:53:28;;;;;;;33.83;31.10;;;;;;;20.08;100.00;101562.38;4958962;29;20126;-85
2022/05/12 06:56:19;;;;;;;33.42;31.50;;;;;;;20.04;100.00;101564.75;4946721;29;20090;-84
2022/05/12 06:58:52;;;;;;;33.58;31.27;;;;;;;20.33;100.00;101554.63;4953495;29;20407;-83
2022/05/12 07:01:20;;;;;;;33.00;30.95;;;;;;;20.27;100.00;101560.19;4948378;29;20562;-84
2022/05/12 07:04:10;;;;;;;32.63;30.50;;;;;;;20.30;100.00;101565.06;4954116;29;20470;-85
2022/05/12 07:06:38;;;;;;;32.63;30.38;;;;;;;20.26;100.00;101564.78;4944286;29;20056;-85
2022/05/12 07:09:12;;;;;;;47.38;43.13;;;;;;;20.34;100.00;101558.13;4949076;29;20082;-82
2022/05/12 07:11:45;;;;;;;33.58;31.55;;;;;;;20.58;100.00;101562.25;4954000;29;20464;-85
2022/05/12 07:14:21;;;;;;;34.70;32.70;;;;;;;20.61;100.00;101558.22;4949856;29;20092;-83
2022/05/12 07:17:08;;;;;;;34.97;32.95;;;;;;;20.54;100.00;101554.88;4956005;29;20062;-84
2022/05/12 07:19:50;;;;;;;38.90;36.00;;;;;;;20.90;100.00;101561.50;4950463;28;20051;-83
2022/05/12 07:28:32;;;;;;;34.00;31.88;;;;;;;20.78;96.38;101558.13;4957763;29;20082;-83
2022/05/12 07:31:01;;;;;;;33.58;31.58;;;;;;;21.21;95.22;101557.22;4962348;29;20055;-83
2022/05/12 07:33:38;;;;;;;33.60;31.90;;;;;;;21.18;96.81;101556.88;4949111;29;20063;-84
2022/05/12 07:36:12;;;;;;;33.10;30.98;;;;;;;21.76;100.00;101557.94;4945030;29;20067;-85
2022/05/12 07:38:53;;;;;;;32.10;30.15;;;;;;;20.96;100.00;101560.47;4952542;29;20083;-83
2022/05/12 07:41:23;;;;;;;32.67;30.65;;;;;;;21.64;95.50;101550.00;4944946;29;20432;-82
2022/05/12 07:43:51;;;;;;;32.40;30.38;;;;;;;20.94;91.92;101562.63;4953758;29;20503;-81
2022/05/12 07:46:21;;;;;;;32.28;30.38;;;;;;;21.87;93.62;101553.38;4956438;29;20052;-82
2022/05/12 07:48:50;;;;;;;31.40;29.50;;;;;;;20.84;100.00;101559.00;4959700;29;20051;-83
2022/05/12 07:51:21;;;;;;;31.83;29.98;;;;;;;20.42;100.00;101552.28;4960777;28;20047;-80
2022/05/12 07:53:48;;;;;;;31.98;29.75;;;;;;;20.63;100.00;101561.47;4953163;29;20048;-85
2022/05/12 07:56:17;;;;;;;42.63;40.22;;;;;;;21.56;94.65;101550.47;4960365;29;20043;-85
2022/05/12 07:58:44;;;;;;;42.30;39.90;;;;;;;20.72;93.85;101559.94;4955210;29;20055;-83
2022/05/12 08:01:18;;;;;;;41.55;39.03;;;;;;;21.16;91.32;101559.84;4958150;29;20070;-85
2022/05/12 08:03:45;;;;;;;41.45;38.92;;;;;;;20.13;98.06;101551.66;4912075;29;20052;-83
2022/05/12 08:06:15;;;;;;;43.65;41.25;;;;;;;20.41;98.07;101553.34;4915867;29;20053;-83
2022/05/12 08:08:51;;;;;;;44.78;41.88;;;;;;;21.94;91.18;101557.50;4917480;29;20052;-84
2022/05/12 08:11:23;;;;;;;44.03;41.63;;;;;;;21.42;96.03;101558.22;4912874;29;20127;-84
2022/05/12 08:13:53;;;;;;;41.33;39.10;;;;;;;20.26;96.70;101556.69;4912621;29;20048;-82
2022/05/12 08:16:27;;;;;;;40.45;38.10;;;;;;;21.19;93.06;101553.94;4912362;29;20050;-82
2022/05/12 08:19:00;;;;;;;40.05;38.00;;;;;;;20.56;92.02;101548.16;4910216;29;20124;-89
2022/05/12 08:21:26;;;;;;;38.10;35.80;;;;;;;21.55;100.00;101550.75;4912038;29;20052;-83
2022/05/12 08:23:56;;;;;;;38.67;36.58;;;;;;;21.31;97.82;101550.25;4910641;29;20442;-83
2022/05/12 08:26:24;;;;;;;38.88;36.75;;;;;;;21.75;87.17;101539.25;4904423;29;20120;-82
2022/05/12 08:28:51;;;;;;;39.90;37.47;;;;;;;21.53;94.06;101537.50;4913772;29;20045;-83
2022/05/12 08:31:20;;;;;;;40.65;37.97;;;;;;;22.28;88.43;101532.00;4920249;29;20128;-86
2022/05/12 08:33:47;;;;;;;38.58;36.38;;;;;;;20.56;93.48;101539.25;4921612;29;20052;-83
2022/05/12 08:36:22;;;;;;;40.17;37.72;;;;;;;20.85;100.00;101544.41;4917023;29;20076;-83
2022/05/12 08:38:49;;;;;;;40.70;38.40;;;;;;;22.01;86.86;101534.81;4917563;29;20060;-84
2022/05/12 08:41:29;;;;;;;38.97;36.70;;;;;;;20.86;94.68;101538.78;4920692;29;20489;-84
2022/05/12 08:44:00;;;;;;;39.53;37.15;;;;;;;21.49;100.00;101529.09;4923305;29;20051;-83
2022/05/12 08:46:38;;;;;;;39.55;36.92;;;;;;;22.52;94.04;101527.75;4913698;29;20103;-84
2022/05/12 08:49:18;;;;;;;39.08;36.85;;;;;;;21.87;86.52;101529.84;4916782;29;20056;-83
2022/05/12 08:51:52;;;;;;;41.45;39.05;;;;;;;23.13;85.76;101527.06;4909151;29;20119;-84
2022/05/12 08:54:23;;;;;;;41.17;38.38;;;;;;;22.53;77.89;101526.66;4920858;29;20059;-84
2022/05/12 08:57:03;;;;;;;41.72;39.38;;;;;;;21.35;84.87;101533.25;4915097;29;20056;-84
2022/05/12 08:59:31;;;;;;;39.75;37.22;;;;;;;22.71;89.69;101527.25;4909101;29;20490;-83
2022/05/12 09:02:09;;;;;;;38.55;36.35;;;;;;;22.42;92.84;101527.69;4928969;29;20587;-85
2022/05/12 09:05:01;;;;;;;39.05;36.75;;;;;;;21.52;93.24;101537.75;4955581;28;20043;-85
2022/05/12 09:07:33;;;;;;;38.42;36.13;;;;;;;21.63;84.74;101521.34;4947927;29;20134;-84
2022/05/12 09:10:10;;;;;;;39.38;36.88;;;;;;;23.03;90.85;101525.19;4946480;29;20440;-83
2022/05/12 09:12:51;;;;;;;38.53;36.22;;;;;;;23.51;78.13;101523.00;4963565;29;20115;-85
2022/05/12 09:15:23;;;;;;;37.95;35.55;;;;;;;23.57;84.67;101517.53;4953996;29;20145;-83
2022/05/12 09:17:56;;;;;;;40.60;37.85;;;;;;;23.89;78.22;101517.25;4948330;29;20061;-85
2022/05/12 09:20:27;;;;;;;39.13;36.75;;;;;;;23.25;75.34;101513.25;4961043;29;20055;-82
2022/05/12 09:22:55;;;;;;;42.00;39.70;;;;;;;24.61;72.92;101517.78;4957478;28;20488;-84
2022/05/12 09:25:52;;;;;;;41.67;39.45;;;;;;;23.62;72.33;101512.94;4951461;29;20047;-86
2022/05/12 09:28:34;;;;;;;42.00;39.40;;;;;;;22.29;80.65;101518.19;4951187;29;20118;-84
2022/05/12 09:31:03;;;;;;;40.13;37.92;;;;;;;24.26;73.43;101507.88;4959789;29;20048;-83
2022/05/12 09:33:35;;;;;;;43.33;40.78;;;;;;;24.27;78.17;101504.06;4954102;28;20039;-84
2022/05/12 09:36:09;;;;;;;40.92;38.53;;;;;;;25.10;69.35;101506.00;4962959;28;20153;-83
2022/05/12 09:38:46;;;;;;;43.10;40.47;;;;;;;24.65;69.46;101508.75;4963551;28;20102;-86
2022/05/12 09:41:20;;;;;;;42.00;39.30;;;;;;;22.34;77.46;101499.28;4959482;29;20062;-85
2022/05/12 09:43:51;;;;;;;42.55;39.92;;;;;;;23.33;71.22;101499.16;4957287;28;20471;-83
2022/05/12 09:46:29;;;;;;;41.30;38.60;;;;;;;24.35;71.29;101506.19;4948365;29;20054;-84
2022/05/12 09:49:20;;;;;;;45.03;42.15;;;;;;;25.08;66.46;101505.47;4953409;29;20047;-85
2022/05/12 09:52:29;;;;;;;45.58;42.75;;;;;;;25.09;68.73;101505.19;4955650;29;20051;-84
2022/05/12 09:55:36;;;;;;;44.33;41.80;;;;;;;24.99;63.43;101501.72;4963663;29;20494;-82
2022/05/12 09:58:46;;;;;;;42.78;40.28;;;;;;;24.71;71.39;101497.88;4947539;29;20055;-84
2022/05/12 10:01:51;;;;;;;42.67;40.25;;;;;;;23.90;68.91;101495.25;4944414;29;20051;-84
2022/05/12 10:10:13;;;;;;;42.55;39.92;;;;;;;25.27;60.88;101481.97;4919762;29;20054;-87
2022/05/12 10:13:07;;;;;;;43.60;41.10;;;;;;;25.44;58.88;101483.44;4918359;29;20048;-83
2022/05/12 10:15:43;;;;;;;41.85;39.45;;;;;;;24.56;63.30;101486.00;4903269;29;20068;-85
2022/05/12 10:18:27;;;;;;;41.08;38.70;;;;;;;25.50;57.68;101471.41;4918322;29;20052;-87
2022/05/12 10:21:03;;;;;;;43.20;40.55;;;;;;;24.00;65.22;101465.38;4913080;29;20052;-84
2022/05/12 10:24:03;;;;;;;43.67;41.30;;;;;;;25.14;55.57;101471.75;4922464;29;20058;-85
2022/05/12 10:26:40;;;;;;;45.03;42.53;;;;;;;25.58;56.22;101462.63;4914208;29;20048;-84
2022/05/12 10:32:57;;;;;;;44.40;41.90;;;;;;;24.96;57.10;101458.84;4911111;29;20404;-86
2022/05/12 10:35:36;;;;;;;42.45;39.95;;;;;;;25.51;56.69;101460.25;4909356;29;20136;-84
2022/05/12 10:38:18;;;;;;;41.00;38.80;;;;;;;25.96;53.81;101452.69;4924788;29;20056;-84
2022/05/12 10:40:51;;;;;;;41.78;39.40;;;;;;;25.16;53.24;101452.44;4907944;29;20056;-83
2022/05/12 10:43:57;;;;;;;40.65;38.25;;;;;;;25.85;51.20;101456.63;4905670;29;20048;-84
2022/05/12 10:46:42;;;;;;;41.75;39.05;;;;;;;24.62;55.88;101448.78;4914668;29;20060;-86
2022/05/12 10:49:21;;;;;;;34.45;32.55;;;;;;;26.02;51.13;101442.50;4917078;29;20127;-83
2022/05/12 10:52:12;;;;;;;32.50;30.70;;;;;;;26.64;49.67;101440.56;4910579;29;20409;-82
2022/05/12 10:54:48;;;;;;;33.53;31.73;;;;;;;23.65;58.08;101446.50;4913344;29;20057;-84
2022/05/12 10:57:37;;;;;;;33.40;31.30;;;;;;;26.53;50.21;101439.09;4924533;29;20063;-83
2022/05/12 11:00:23;;;;;;;34.42;32.42;;;;;;;25.93;50.23;101441.56;4922134;29;20052;-83
2022/05/12 11:02:55;;;;;;;34.50;32.50;;;;;;;26.40;48.77;101435.19;4951683;28;20051;-83
2022/05/12 11:05:36;;;;;;;39.10;36.92;;;;;;;26.12;50.98;101423.34;4956676;28;20118;-83
2022/05/12 11:08:11;;;;;;;35.30;33.40;;;;;;;26.29;51.94;101428.25;4942533;29;20473;-84
2022/05/12 11:10:50;;;;;;;36.10;33.90;;;;;;;26.08;48.88;101407.88;4956492;28;20464;-83
2022/05/12 11:13:25;;;;;;;35.65;33.38;;;;;;;26.38;45.75;101420.25;4961129;28;20459;-83
2022/05/12 11:16:00;;;;;;;36.63;34.42;;;;;;;27.14;46.08;101415.47;4957888;28;20074;-82
2022/05/12 11:18:42;;;;;;;35.20;33.20;;;;;;;26.01;48.02;101413.69;4965991;28;20125;-82
2022/05/12 11:21:16;;;;;;;37.65;35.45;;;;;;;26.74;42.29;101417.78;4950101;29;20047;-83
2022/05/12 11:24:14;;;;;;;37.08;34.95;;;;;;;25.35;48.71;101418.00;4948041;29;20056;-82
2022/05/12 11:26:50;;;;;;;36.08;33.83;;;;;;;26.41;47.19;101403.31;4943485;29;20055;-82
2022/05/12 11:29:48;;;;;;;35.03;32.95;;;;;;;25.72;49.37;101411.03;4955726;29;20070;-84
2022/05/12 11:32:39;;;;;;;38.50;36.03;;;;;;;25.32;49.77;101402.25;4962162;28;20043;-84
2022/05/12 11:35:09;;;;;;;42.15;39.75;;;;;;;26.08;45.83;101403.25;4958543;29;20113;-84
2022/05/12 11:37:54;;;;;;;35.28;33.17;;;;;;;26.42;47.19;101399.50;4946696;29;20077;-83
2022/05/12 11:40:51;;;;;;;37.60;35.38;;;;;;;23.65;53.79;101400.41;4951662;29;20062;-83
2022/05/12 11:46:41;;;;;;;35.80;33.50;;;;;;;26.89;45.21;101384.84;4952551;28;20058;-85
2022/05/12 11:49:26;;;;;;;42.38;40.28;;;;;;;25.85;48.20;101383.16;4952792;29;20059;-82
2022/05/12 11:52:18;;;;;;;38.65;36.55;;;;;;;26.06;44.69;101383.69;4957204;29;20051;-85
2022/05/12 11:54:52;;;;;;;37.30;34.97;;;;;;;27.56;44.68;101376.22;4942020;29;20052;-84
2022/05/12 11:57:29;;;;;;;37.17;34.80;;;;;;;27.58;41.81;101384.09;4957189;29;20043;-83
2022/05/12 12:00:00;;;;;;;37.50;35.35;;;;;;;26.95;45.02;101377.38;4957114;29;20058;-83
2022/05/12 12:02:46;;;;;;;40.53;38.30;;;;;;;27.21;38.08;101369.56;4956667;29;20057;-82
2022/05/12 12:05:50;;;;;;;38.15;35.83;;;;;;;27.81;44.67;101371.38;4949029;28;20066;-84
2022/05/12 12:08:36;;;;;;;38.03;35.83;;;;;;;27.02;39.91;101364.19;4946203;29;20058;-84